sensor_id;sensor_type;location;lat;lon;timestamp;P1;durP1;ratioP1;P2;durP2;ratioP2
24557;SDS011;12726;49.148;8.582;2023-12-14T00:02:06;5.18;;;3.28;;
24557;SDS011;12726;49.148;8.582;2023-12-14T00:04:54;5.53;;;3.17;;
24557;SDS011;12726;49.148;8.582;2023-12-14T00:07:39;7.40;;;3.67;;
24557;SDS011;12726;49.148;8.582;2023-12-14T00:10:24;5.72;;;3.67;;
24557;SDS011;12726;49.148;8.582;2023-12-14T00:13:10;7.68;;;3.65;;
24557;SDS011;12726;49.148;8.582;2023-12-14T00:15:56;6.28;;;3.20;;
24557;SDS011;12726;49.148;8.582;2023-12-14T00:18:42;4.47;;;3.25;;
24557;SDS011;12726;49.148;8.582;2023-12-14T00:21:27;5.85;;;3.70;;
24557;SDS011;12726;49.148;8.582;2023-12-14T00:24:13;4.60;;;3.20;;
24557;SDS011;12726;49.148;8.582;2023-12-14T00:26:58;7.53;;;3.67;;
24557;SDS011;12726;49.148;8.582;2023-12-14T00:29:43;5.97;;;3.20;;
24557;SDS011;12726;49.148;8.582;2023-12-14T00:32:30;6.10;;;3.40;;
24557;SDS011;12726;49.148;8.582;2023-12-14T00:35:16;5.35;;;3.63;;
24557;SDS011;12726;49.148;8.582;2023-12-14T00:38:01;8.07;;;3.63;;
24557;SDS011;12726;49.148;8.582;2023-12-14T00:40:46;4.65;;;3.50;;
24557;SDS011;12726;49.148;8.582;2023-12-14T00:43:32;6.10;;;3.47;;
24557;SDS011;12726;49.148;8.582;2023-12-14T00:46:17;6.93;;;3.65;;
24557;SDS011;12726;49.148;8.582;2023-12-14T00:49:03;6.45;;;3.75;;
24557;SDS011;12726;49.148;8.582;2023-12-14T00:51:49;5.88;;;3.70;;
24557;SDS011;12726;49.148;8.582;2023-12-14T00:54:34;6.10;;;3.50;;
24557;SDS011;12726;49.148;8.582;2023-12-14T00:57:20;5.47;;;3.90;;
24557;SDS011;12726;49.148;8.582;2023-12-14T01:00:05;7.85;;;4.30;;
24557;SDS011;12726;49.148;8.582;2023-12-14T01:02:53;6.88;;;4.30;;
24557;SDS011;12726;49.148;8.582;2023-12-14T01:05:39;7.05;;;4.57;;
24557;SDS011;12726;49.148;8.582;2023-12-14T01:08:25;7.93;;;4.45;;
24557;SDS011;12726;49.148;8.582;2023-12-14T01:11:10;5.82;;;4.13;;
24557;SDS011;12726;49.148;8.582;2023-12-14T01:13:55;9.20;;;4.82;;
24557;SDS011;12726;49.148;8.582;2023-12-14T01:16:41;10.05;;;5.43;;
24557;SDS011;12726;49.148;8.582;2023-12-14T01:19:26;8.98;;;5.38;;
24557;SDS011;12726;49.148;8.582;2023-12-14T01:22:13;10.73;;;6.60;;
24557;SDS011;12726;49.148;8.582;2023-12-14T01:24:58;9.38;;;6.97;;
24557;SDS011;12726;49.148;8.582;2023-12-14T01:27:44;17.58;;;7.97;;
24557;SDS011;12726;49.148;8.582;2023-12-14T01:30:29;11.63;;;8.30;;
24557;SDS011;12726;49.148;8.582;2023-12-14T01:33:15;13.20;;;7.53;;
24557;SDS011;12726;49.148;8.582;2023-12-14T01:36:00;11.95;;;8.00;;
24557;SDS011;12726;49.148;8.582;2023-12-14T01:38:47;11.32;;;7.68;;
24557;SDS011;12726;49.148;8.582;2023-12-14T01:41:32;12.35;;;8.20;;
24557;SDS011;12726;49.148;8.582;2023-12-14T01:44:17;13.95;;;8.82;;
24557;SDS011;12726;49.148;8.582;2023-12-14T01:47:03;11.23;;;7.97;;
24557;SDS011;12726;49.148;8.582;2023-12-14T01:49:49;12.60;;;8.57;;
24557;SDS011;12726;49.148;8.582;2023-12-14T01:52:34;13.68;;;8.93;;
24557;SDS011;12726;49.148;8.582;2023-12-14T01:55:21;15.57;;;10.48;;
24557;SDS011;12726;49.148;8.582;2023-12-14T01:58:06;18.15;;;10.35;;
24557;SDS011;12726;49.148;8.582;2023-12-14T02:00:52;16.02;;;10.57;;
24557;SDS011;12726;49.148;8.582;2023-12-14T02:03:49;17.48;;;10.70;;
24557;SDS011;12726;49.148;8.582;2023-12-14T02:06:36;18.15;;;11.02;;
24557;SDS011;12726;49.148;8.582;2023-12-14T02:09:21;16.15;;;10.63;;
24557;SDS011;12726;49.148;8.582;2023-12-14T02:12:08;17.80;;;9.98;;
24557;SDS011;12726;49.148;8.582;2023-12-14T02:14:55;18.95;;;9.80;;
24557;SDS011;12726;49.148;8.582;2023-12-14T02:17:41;14.85;;;9.93;;
24557;SDS011;12726;49.148;8.582;2023-12-14T02:20:26;16.33;;;10.50;;
24557;SDS011;12726;49.148;8.582;2023-12-14T02:23:13;14.57;;;10.02;;
24557;SDS011;12726;49.148;8.582;2023-12-14T02:25:59;15.43;;;9.25;;
24557;SDS011;12726;49.148;8.582;2023-12-14T02:28:44;15.45;;;9.25;;
24557;SDS011;12726;49.148;8.582;2023-12-14T02:31:30;13.60;;;9.07;;
24557;SDS011;12726;49.148;8.582;2023-12-14T02:34:15;14.23;;;9.25;;
24557;SDS011;12726;49.148;8.582;2023-12-14T02:37:00;13.65;;;9.05;;
24557;SDS011;12726;49.148;8.582;2023-12-14T02:39:47;15.43;;;10.35;;
24557;SDS011;12726;49.148;8.582;2023-12-14T02:42:33;13.43;;;9.27;;
24557;SDS011;12726;49.148;8.582;2023-12-14T02:45:18;15.60;;;8.60;;
24557;SDS011;12726;49.148;8.582;2023-12-14T02:48:04;15.48;;;9.93;;
24557;SDS011;12726;49.148;8.582;2023-12-14T02:50:49;15.45;;;9.20;;
24557;SDS011;12726;49.148;8.582;2023-12-14T02:53:35;14.65;;;9.00;;
24557;SDS011;12726;49.148;8.582;2023-12-14T02:56:21;17.55;;;10.05;;
24557;SDS011;12726;49.148;8.582;2023-12-14T02:59:07;19.58;;;10.48;;
24557;SDS011;12726;49.148;8.582;2023-12-14T03:01:52;17.08;;;10.52;;
24557;SDS011;12726;49.148;8.582;2023-12-14T03:04:38;18.95;;;10.80;;
24557;SDS011;12726;49.148;8.582;2023-12-14T03:07:26;16.75;;;10.68;;
24557;SDS011;12726;49.148;8.582;2023-12-14T03:10:11;14.40;;;9.68;;
24557;SDS011;12726;49.148;8.582;2023-12-14T03:12:57;16.23;;;10.48;;
24557;SDS011;12726;49.148;8.582;2023-12-14T03:15:43;17.35;;;10.57;;
24557;SDS011;12726;49.148;8.582;2023-12-14T03:18:28;14.10;;;9.63;;
24557;SDS011;12726;49.148;8.582;2023-12-14T03:21:14;18.13;;;9.57;;
24557;SDS011;12726;49.148;8.582;2023-12-14T03:23:59;15.32;;;9.35;;
24557;SDS011;12726;49.148;8.582;2023-12-14T03:26:45;17.17;;;10.25;;
24557;SDS011;12726;49.148;8.582;2023-12-14T03:29:31;15.43;;;9.27;;
24557;SDS011;12726;49.148;8.582;2023-12-14T03:32:17;17.80;;;10.77;;
24557;SDS011;12726;49.148;8.582;2023-12-14T03:35:07;14.13;;;9.40;;
24557;SDS011;12726;49.148;8.582;2023-12-14T03:37:53;15.50;;;10.13;;
24557;SDS011;12726;49.148;8.582;2023-12-14T03:40:38;18.48;;;10.45;;
24557;SDS011;12726;49.148;8.582;2023-12-14T03:43:23;18.77;;;11.80;;
24557;SDS011;12726;49.148;8.582;2023-12-14T03:46:10;18.55;;;12.13;;
24557;SDS011;12726;49.148;8.582;2023-12-14T03:48:55;22.30;;;12.75;;
24557;SDS011;12726;49.148;8.582;2023-12-14T03:51:41;22.17;;;14.05;;
24557;SDS011;12726;49.148;8.582;2023-12-14T03:54:26;19.10;;;12.18;;
24557;SDS011;12726;49.148;8.582;2023-12-14T03:57:12;18.50;;;12.40;;
24557;SDS011;12726;49.148;8.582;2023-12-14T03:59:57;16.85;;;11.05;;
24557;SDS011;12726;49.148;8.582;2023-12-14T04:02:44;18.35;;;11.02;;
24557;SDS011;12726;49.148;8.582;2023-12-14T04:05:30;16.25;;;11.07;;
24557;SDS011;12726;49.148;8.582;2023-12-14T04:08:15;18.35;;;11.02;;
24557;SDS011;12726;49.148;8.582;2023-12-14T04:11:00;20.20;;;10.75;;
24557;SDS011;12726;49.148;8.582;2023-12-14T04:13:46;19.92;;;12.23;;
24557;SDS011;12726;49.148;8.582;2023-12-14T04:16:34;18.33;;;11.00;;
24557;SDS011;12726;49.148;8.582;2023-12-14T04:19:20;19.83;;;12.00;;
24557;SDS011;12726;49.148;8.582;2023-12-14T04:22:05;21.58;;;12.27;;
24557;SDS011;12726;49.148;8.582;2023-12-14T04:24:51;22.50;;;13.02;;
24557;SDS011;12726;49.148;8.582;2023-12-14T04:27:36;20.63;;;12.68;;
24557;SDS011;12726;49.148;8.582;2023-12-14T04:30:22;22.75;;;12.32;;
24557;SDS011;12726;49.148;8.582;2023-12-14T04:33:07;19.75;;;11.73;;
24557;SDS011;12726;49.148;8.582;2023-12-14T04:35:54;16.48;;;10.98;;
24557;SDS011;12726;49.148;8.582;2023-12-14T04:38:39;20.15;;;11.93;;
24557;SDS011;12726;49.148;8.582;2023-12-14T04:41:25;17.27;;;11.70;;
24557;SDS011;12726;49.148;8.582;2023-12-14T04:44:10;21.48;;;11.70;;
24557;SDS011;12726;49.148;8.582;2023-12-14T04:46:55;20.05;;;11.40;;
24557;SDS011;12726;49.148;8.582;2023-12-14T04:49:40;18.05;;;12.07;;
24557;SDS011;12726;49.148;8.582;2023-12-14T04:52:27;17.17;;;11.02;;
24557;SDS011;12726;49.148;8.582;2023-12-14T04:55:13;17.23;;;11.07;;
24557;SDS011;12726;49.148;8.582;2023-12-14T04:57:58;18.60;;;11.25;;
24557;SDS011;12726;49.148;8.582;2023-12-14T05:00:43;21.75;;;11.45;;
24557;SDS011;12726;49.148;8.582;2023-12-14T05:03:28;20.67;;;12.48;;
24557;SDS011;12726;49.148;8.582;2023-12-14T05:06:14;21.77;;;12.63;;
24557;SDS011;12726;49.148;8.582;2023-12-14T05:09:00;17.45;;;11.25;;
24557;SDS011;12726;49.148;8.582;2023-12-14T05:11:48;20.83;;;11.57;;
24557;SDS011;12726;49.148;8.582;2023-12-14T05:14:33;19.98;;;12.38;;
24557;SDS011;12726;49.148;8.582;2023-12-14T05:17:19;16.90;;;11.68;;
24557;SDS011;12726;49.148;8.582;2023-12-14T05:20:05;21.00;;;12.25;;
24557;SDS011;12726;49.148;8.582;2023-12-14T05:22:53;24.38;;;12.93;;
24557;SDS011;12726;49.148;8.582;2023-12-14T05:25:42;20.88;;;12.30;;
24557;SDS011;12726;49.148;8.582;2023-12-14T05:28:28;21.17;;;12.90;;
24557;SDS011;12726;49.148;8.582;2023-12-14T05:31:14;19.85;;;12.38;;
24557;SDS011;12726;49.148;8.582;2023-12-14T05:33:59;19.42;;;11.90;;
24557;SDS011;12726;49.148;8.582;2023-12-14T05:36:46;19.92;;;12.07;;
24557;SDS011;12726;49.148;8.582;2023-12-14T05:39:31;19.73;;;12.50;;
24557;SDS011;12726;49.148;8.582;2023-12-14T05:42:18;22.77;;;13.13;;
24557;SDS011;12726;49.148;8.582;2023-12-14T05:45:03;23.52;;;14.55;;
24557;SDS011;12726;49.148;8.582;2023-12-14T05:47:49;25.08;;;14.27;;
24557;SDS011;12726;49.148;8.582;2023-12-14T05:50:34;22.50;;;13.27;;
24557;SDS011;12726;49.148;8.582;2023-12-14T05:53:20;24.17;;;13.23;;
24557;SDS011;12726;49.148;8.582;2023-12-14T05:56:06;23.25;;;12.55;;
24557;SDS011;12726;49.148;8.582;2023-12-14T05:58:53;24.35;;;13.20;;
24557;SDS011;12726;49.148;8.582;2023-12-14T06:01:38;23.30;;;14.40;;
24557;SDS011;12726;49.148;8.582;2023-12-14T06:04:24;21.40;;;12.95;;
24557;SDS011;12726;49.148;8.582;2023-12-14T06:07:10;25.17;;;14.75;;
24557;SDS011;12726;49.148;8.582;2023-12-14T06:09:55;27.48;;;15.93;;
24557;SDS011;12726;49.148;8.582;2023-12-14T06:12:40;27.85;;;15.25;;
24557;SDS011;12726;49.148;8.582;2023-12-14T06:15:27;31.15;;;17.05;;
24557;SDS011;12726;49.148;8.582;2023-12-14T06:18:13;25.42;;;15.05;;
24557;SDS011;12726;49.148;8.582;2023-12-14T06:20:58;28.63;;;15.90;;
24557;SDS011;12726;49.148;8.582;2023-12-14T06:23:45;27.75;;;16.00;;
24557;SDS011;12726;49.148;8.582;2023-12-14T06:26:30;27.80;;;16.10;;
24557;SDS011;12726;49.148;8.582;2023-12-14T06:29:16;26.52;;;15.02;;
24557;SDS011;12726;49.148;8.582;2023-12-14T06:32:03;23.73;;;14.75;;
24557;SDS011;12726;49.148;8.582;2023-12-14T06:34:49;24.60;;;15.63;;
24557;SDS011;12726;49.148;8.582;2023-12-14T06:37:35;27.38;;;15.35;;
24557;SDS011;12726;49.148;8.582;2023-12-14T06:40:20;24.13;;;14.75;;
24557;SDS011;12726;49.148;8.582;2023-12-14T06:43:06;24.85;;;14.32;;
24557;SDS011;12726;49.148;8.582;2023-12-14T06:45:51;28.95;;;16.83;;
24557;SDS011;12726;49.148;8.582;2023-12-14T06:48:38;30.08;;;17.15;;
24557;SDS011;12726;49.148;8.582;2023-12-14T06:51:23;29.83;;;16.60;;
24557;SDS011;12726;49.148;8.582;2023-12-14T06:54:08;31.17;;;16.67;;
24557;SDS011;12726;49.148;8.582;2023-12-14T06:56:54;31.15;;;17.33;;
24557;SDS011;12726;49.148;8.582;2023-12-14T06:59:39;28.10;;;16.55;;
24557;SDS011;12726;49.148;8.582;2023-12-14T07:02:25;28.52;;;14.35;;
24557;SDS011;12726;49.148;8.582;2023-12-14T07:05:11;28.23;;;15.65;;
24557;SDS011;12726;49.148;8.582;2023-12-14T07:07:57;24.15;;;14.77;;
24557;SDS011;12726;49.148;8.582;2023-12-14T07:10:42;28.05;;;15.75;;
24557;SDS011;12726;49.148;8.582;2023-12-14T07:13:27;23.25;;;14.30;;
24557;SDS011;12726;49.148;8.582;2023-12-14T07:16:13;24.55;;;14.98;;
24557;SDS011;12726;49.148;8.582;2023-12-14T07:19:01;29.80;;;15.57;;
24557;SDS011;12726;49.148;8.582;2023-12-14T07:21:47;28.83;;;15.43;;
24557;SDS011;12726;49.148;8.582;2023-12-14T07:24:32;27.60;;;16.52;;
24557;SDS011;12726;49.148;8.582;2023-12-14T07:27:18;28.83;;;16.80;;
24557;SDS011;12726;49.148;8.582;2023-12-14T07:30:04;33.45;;;17.80;;
24557;SDS011;12726;49.148;8.582;2023-12-14T07:32:50;31.73;;;18.58;;
24557;SDS011;12726;49.148;8.582;2023-12-14T07:35:35;38.20;;;19.08;;
24557;SDS011;12726;49.148;8.582;2023-12-14T07:38:22;31.20;;;17.80;;
24557;SDS011;12726;49.148;8.582;2023-12-14T07:41:07;33.92;;;19.13;;
24557;SDS011;12726;49.148;8.582;2023-12-14T07:43:53;36.00;;;19.95;;
24557;SDS011;12726;49.148;8.582;2023-12-14T07:46:38;32.65;;;19.13;;
24557;SDS011;12726;49.148;8.582;2023-12-14T07:49:26;30.73;;;17.38;;
24557;SDS011;12726;49.148;8.582;2023-12-14T07:52:11;28.80;;;16.25;;
24557;SDS011;12726;49.148;8.582;2023-12-14T07:54:58;29.48;;;16.20;;
24557;SDS011;12726;49.148;8.582;2023-12-14T07:57:44;27.42;;;15.85;;
24557;SDS011;12726;49.148;8.582;2023-12-14T08:00:29;27.45;;;16.33;;
24557;SDS011;12726;49.148;8.582;2023-12-14T08:03:15;30.55;;;16.38;;
24557;SDS011;12726;49.148;8.582;2023-12-14T08:06:00;29.17;;;16.20;;
24557;SDS011;12726;49.148;8.582;2023-12-14T08:08:45;29.45;;;17.02;;
24557;SDS011;12726;49.148;8.582;2023-12-14T08:11:32;28.60;;;16.17;;
24557;SDS011;12726;49.148;8.582;2023-12-14T08:14:17;32.45;;;17.77;;
24557;SDS011;12726;49.148;8.582;2023-12-14T08:17:03;33.35;;;17.60;;
24557;SDS011;12726;49.148;8.582;2023-12-14T08:19:48;28.92;;;17.45;;
24557;SDS011;12726;49.148;8.582;2023-12-14T08:22:33;30.58;;;18.42;;
24557;SDS011;12726;49.148;8.582;2023-12-14T08:25:19;32.85;;;18.17;;
24557;SDS011;12726;49.148;8.582;2023-12-14T08:28:05;30.75;;;17.77;;
24557;SDS011;12726;49.148;8.582;2023-12-14T08:30:51;34.10;;;17.30;;
24557;SDS011;12726;49.148;8.582;2023-12-14T08:33:36;29.42;;;17.08;;
24557;SDS011;12726;49.148;8.582;2023-12-14T08:36:21;26.92;;;16.55;;
24557;SDS011;12726;49.148;8.582;2023-12-14T08:39:07;30.52;;;16.77;;
24557;SDS011;12726;49.148;8.582;2023-12-14T08:41:52;27.48;;;17.02;;
24557;SDS011;12726;49.148;8.582;2023-12-14T08:44:39;27.20;;;15.93;;
24557;SDS011;12726;49.148;8.582;2023-12-14T08:47:25;27.55;;;16.52;;
24557;SDS011;12726;49.148;8.582;2023-12-14T08:50:10;24.35;;;15.20;;
24557;SDS011;12726;49.148;8.582;2023-12-14T08:52:58;25.42;;;14.88;;
24557;SDS011;12726;49.148;8.582;2023-12-14T08:55:44;25.67;;;14.98;;
24557;SDS011;12726;49.148;8.582;2023-12-14T08:58:29;25.75;;;15.57;;
24557;SDS011;12726;49.148;8.582;2023-12-14T09:01:20;25.95;;;14.98;;
24557;SDS011;12726;49.148;8.582;2023-12-14T09:04:05;29.10;;;15.60;;
24557;SDS011;12726;49.148;8.582;2023-12-14T09:06:51;23.15;;;14.50;;
24557;SDS011;12726;49.148;8.582;2023-12-14T09:09:37;27.15;;;14.18;;
24557;SDS011;12726;49.148;8.582;2023-12-14T09:12:22;22.98;;;13.88;;
24557;SDS011;12726;49.148;8.582;2023-12-14T09:15:08;23.73;;;13.35;;
24557;SDS011;12726;49.148;8.582;2023-12-14T09:17:55;22.73;;;13.27;;
24557;SDS011;12726;49.148;8.582;2023-12-14T09:20:40;22.30;;;14.02;;
24557;SDS011;12726;49.148;8.582;2023-12-14T09:23:26;21.13;;;13.20;;
24557;SDS011;12726;49.148;8.582;2023-12-14T09:26:11;22.52;;;13.38;;
24557;SDS011;12726;49.148;8.582;2023-12-14T09:28:56;21.73;;;13.38;;
24557;SDS011;12726;49.148;8.582;2023-12-14T09:31:42;22.63;;;13.88;;
24557;SDS011;12726;49.148;8.582;2023-12-14T09:34:29;24.73;;;14.23;;
24557;SDS011;12726;49.148;8.582;2023-12-14T09:37:14;23.33;;;14.98;;
24557;SDS011;12726;49.148;8.582;2023-12-14T09:39:59;20.77;;;13.25;;
24557;SDS011;12726;49.148;8.582;2023-12-14T09:42:46;22.10;;;13.75;;
24557;SDS011;12726;49.148;8.582;2023-12-14T09:45:31;24.17;;;13.40;;
24557;SDS011;12726;49.148;8.582;2023-12-14T09:48:17;21.33;;;12.98;;
24557;SDS011;12726;49.148;8.582;2023-12-14T09:51:04;22.20;;;13.60;;
24557;SDS011;12726;49.148;8.582;2023-12-14T09:53:49;22.10;;;12.93;;
24557;SDS011;12726;49.148;8.582;2023-12-14T09:56:45;22.25;;;14.05;;
24557;SDS011;12726;49.148;8.582;2023-12-14T09:59:31;22.05;;;12.93;;
24557;SDS011;12726;49.148;8.582;2023-12-14T10:02:17;19.30;;;12.43;;
24557;SDS011;12726;49.148;8.582;2023-12-14T10:05:02;21.58;;;13.57;;
24557;SDS011;12726;49.148;8.582;2023-12-14T10:07:53;19.85;;;13.35;;
24557;SDS011;12726;49.148;8.582;2023-12-14T10:10:39;20.50;;;12.82;;
24557;SDS011;12726;49.148;8.582;2023-12-14T10:13:35;20.13;;;11.40;;
24557;SDS011;12726;49.148;8.582;2023-12-14T10:16:31;19.08;;;11.90;;
24557;SDS011;12726;49.148;8.582;2023-12-14T10:19:17;19.65;;;12.07;;
24557;SDS011;12726;49.148;8.582;2023-12-14T10:22:03;20.70;;;13.10;;
24557;SDS011;12726;49.148;8.582;2023-12-14T10:24:53;21.48;;;13.40;;
24557;SDS011;12726;49.148;8.582;2023-12-14T10:27:38;18.42;;;11.73;;
24557;SDS011;12726;49.148;8.582;2023-12-14T10:30:24;19.58;;;12.63;;
24557;SDS011;12726;49.148;8.582;2023-12-14T10:33:09;20.67;;;11.60;;
24557;SDS011;12726;49.148;8.582;2023-12-14T10:35:54;22.55;;;12.27;;
24557;SDS011;12726;49.148;8.582;2023-12-14T10:38:40;18.20;;;11.20;;
24557;SDS011;12726;49.148;8.582;2023-12-14T10:41:29;17.75;;;10.45;;
24557;SDS011;12726;49.148;8.582;2023-12-14T10:44:16;16.75;;;10.40;;
24557;SDS011;12726;49.148;8.582;2023-12-14T10:47:04;14.57;;;9.18;;
24557;SDS011;12726;49.148;8.582;2023-12-14T10:49:51;16.42;;;9.10;;
24557;SDS011;12726;49.148;8.582;2023-12-14T10:52:39;16.77;;;8.77;;
24557;SDS011;12726;49.148;8.582;2023-12-14T10:55:27;18.25;;;8.20;;
24557;SDS011;12726;49.148;8.582;2023-12-14T10:58:19;15.15;;;8.52;;
24557;SDS011;12726;49.148;8.582;2023-12-14T11:01:05;13.15;;;8.20;;
24557;SDS011;12726;49.148;8.582;2023-12-14T11:03:51;18.13;;;8.95;;
24557;SDS011;12726;49.148;8.582;2023-12-14T11:06:40;14.68;;;8.55;;
24557;SDS011;12726;49.148;8.582;2023-12-14T11:09:30;18.50;;;9.32;;
24557;SDS011;12726;49.148;8.582;2023-12-14T11:12:19;12.35;;;9.13;;
24557;SDS011;12726;49.148;8.582;2023-12-14T11:15:08;18.38;;;10.57;;
24557;SDS011;12726;49.148;8.582;2023-12-14T11:21:09;18.30;;;9.82;;
24557;SDS011;12726;49.148;8.582;2023-12-14T11:24:02;16.80;;;10.00;;
24557;SDS011;12726;49.148;8.582;2023-12-14T11:26:48;16.73;;;9.68;;
24557;SDS011;12726;49.148;8.582;2023-12-14T11:29:35;16.90;;;10.52;;
24557;SDS011;12726;49.148;8.582;2023-12-14T11:32:22;20.33;;;10.57;;
24557;SDS011;12726;49.148;8.582;2023-12-14T11:35:10;16.10;;;10.77;;
24557;SDS011;12726;49.148;8.582;2023-12-14T11:37:56;16.65;;;11.10;;
24557;SDS011;12726;49.148;8.582;2023-12-14T11:40:43;24.17;;;11.10;;
24557;SDS011;12726;49.148;8.582;2023-12-14T11:43:29;14.52;;;10.07;;
24557;SDS011;12726;49.148;8.582;2023-12-14T11:46:17;21.27;;;9.50;;
24557;SDS011;12726;49.148;8.582;2023-12-14T11:49:04;15.27;;;10.38;;
24557;SDS011;12726;49.148;8.582;2023-12-14T11:51:50;16.17;;;10.10;;
24557;SDS011;12726;49.148;8.582;2023-12-14T11:54:36;18.30;;;10.02;;
24557;SDS011;12726;49.148;8.582;2023-12-14T11:57:22;15.48;;;10.20;;
24557;SDS011;12726;49.148;8.582;2023-12-14T12:00:13;15.88;;;11.50;;
24557;SDS011;12726;49.148;8.582;2023-12-14T12:03:09;17.23;;;10.90;;
24557;SDS011;12726;49.148;8.582;2023-12-14T12:06:03;16.88;;;10.32;;
24557;SDS011;12726;49.148;8.582;2023-12-14T12:11:35;13.75;;;9.75;;
24557;SDS011;12726;49.148;8.582;2023-12-14T12:14:22;18.50;;;12.43;;
24557;SDS011;12726;49.148;8.582;2023-12-14T12:17:10;21.08;;;13.05;;
24557;SDS011;12726;49.148;8.582;2023-12-14T12:19:58;19.85;;;12.75;;
24557;SDS011;12726;49.148;8.582;2023-12-14T12:22:45;18.02;;;11.82;;
24557;SDS011;12726;49.148;8.582;2023-12-14T12:25:30;17.33;;;11.48;;
24557;SDS011;12726;49.148;8.582;2023-12-14T12:28:16;20.52;;;11.73;;
24557;SDS011;12726;49.148;8.582;2023-12-14T12:31:01;16.65;;;9.57;;
24557;SDS011;12726;49.148;8.582;2023-12-14T12:33:47;15.15;;;9.75;;
24557;SDS011;12726;49.148;8.582;2023-12-14T12:36:33;16.85;;;9.77;;
24557;SDS011;12726;49.148;8.582;2023-12-14T12:39:20;16.70;;;10.70;;
24557;SDS011;12726;49.148;8.582;2023-12-14T12:42:06;16.35;;;10.23;;
24557;SDS011;12726;49.148;8.582;2023-12-14T12:44:52;17.13;;;10.43;;
24557;SDS011;12726;49.148;8.582;2023-12-14T12:47:37;17.42;;;9.65;;
24557;SDS011;12726;49.148;8.582;2023-12-14T12:50:23;19.58;;;11.13;;
24557;SDS011;12726;49.148;8.582;2023-12-14T12:53:08;20.33;;;11.55;;
24557;SDS011;12726;49.148;8.582;2023-12-14T12:55:55;18.98;;;9.82;;
24557;SDS011;12726;49.148;8.582;2023-12-14T12:58:41;16.20;;;9.40;;
24557;SDS011;12726;49.148;8.582;2023-12-14T13:01:26;18.33;;;10.25;;
24557;SDS011;12726;49.148;8.582;2023-12-14T13:04:21;20.13;;;10.30;;
24557;SDS011;12726;49.148;8.582;2023-12-14T13:07:07;16.90;;;10.43;;
24557;SDS011;12726;49.148;8.582;2023-12-14T13:09:52;19.52;;;10.35;;
24557;SDS011;12726;49.148;8.582;2023-12-14T13:12:39;16.35;;;10.05;;
24557;SDS011;12726;49.148;8.582;2023-12-14T13:15:24;18.85;;;9.70;;
24557;SDS011;12726;49.148;8.582;2023-12-14T13:18:10;17.02;;;9.25;;
24557;SDS011;12726;49.148;8.582;2023-12-14T13:20:56;16.63;;;9.07;;
24557;SDS011;12726;49.148;8.582;2023-12-14T13:23:42;15.85;;;9.23;;
24557;SDS011;12726;49.148;8.582;2023-12-14T13:26:28;12.70;;;8.27;;
24557;SDS011;12726;49.148;8.582;2023-12-14T13:29:14;14.82;;;8.40;;
24557;SDS011;12726;49.148;8.582;2023-12-14T13:32:00;15.43;;;8.43;;
24557;SDS011;12726;49.148;8.582;2023-12-14T13:34:46;14.15;;;8.45;;
24557;SDS011;12726;49.148;8.582;2023-12-14T13:37:32;17.75;;;8.15;;
24557;SDS011;12726;49.148;8.582;2023-12-14T13:40:19;14.63;;;8.50;;
24557;SDS011;12726;49.148;8.582;2023-12-14T13:43:05;15.65;;;8.45;;
24557;SDS011;12726;49.148;8.582;2023-12-14T13:45:57;14.73;;;8.38;;
24557;SDS011;12726;49.148;8.582;2023-12-14T13:48:42;14.85;;;8.25;;
24557;SDS011;12726;49.148;8.582;2023-12-14T13:51:28;13.60;;;8.30;;
24557;SDS011;12726;49.148;8.582;2023-12-14T13:54:13;11.00;;;7.70;;
24557;SDS011;12726;49.148;8.582;2023-12-14T13:56:59;14.57;;;7.65;;
24557;SDS011;12726;49.148;8.582;2023-12-14T13:59:44;11.57;;;7.82;;
24557;SDS011;12726;49.148;8.582;2023-12-14T14:02:31;12.07;;;7.20;;
24557;SDS011;12726;49.148;8.582;2023-12-14T14:05:16;17.05;;;9.45;;
24557;SDS011;12726;49.148;8.582;2023-12-14T14:08:02;14.30;;;7.53;;
24557;SDS011;12726;49.148;8.582;2023-12-14T14:10:48;19.42;;;9.77;;
24557;SDS011;12726;49.148;8.582;2023-12-14T14:13:33;14.13;;;9.05;;
24557;SDS011;12726;49.148;8.582;2023-12-14T14:16:19;20.30;;;11.07;;
24557;SDS011;12726;49.148;8.582;2023-12-14T14:19:06;17.20;;;8.93;;
24557;SDS011;12726;49.148;8.582;2023-12-14T14:21:51;15.75;;;8.43;;
24557;SDS011;12726;49.148;8.582;2023-12-14T14:24:36;16.20;;;9.27;;
24557;SDS011;12726;49.148;8.582;2023-12-14T14:27:22;19.48;;;10.50;;
24557;SDS011;12726;49.148;8.582;2023-12-14T14:30:07;19.45;;;10.32;;
24557;SDS011;12726;49.148;8.582;2023-12-14T14:32:53;19.40;;;10.18;;
24557;SDS011;12726;49.148;8.582;2023-12-14T14:35:40;17.52;;;10.20;;
24557;SDS011;12726;49.148;8.582;2023-12-14T14:38:25;18.35;;;9.98;;
24557;SDS011;12726;49.148;8.582;2023-12-14T14:41:11;15.20;;;9.75;;
24557;SDS011;12726;49.148;8.582;2023-12-14T14:43:56;19.75;;;10.63;;
24557;SDS011;12726;49.148;8.582;2023-12-14T14:46:42;36.35;;;16.45;;
24557;SDS011;12726;49.148;8.582;2023-12-14T14:49:28;24.70;;;13.05;;
24557;SDS011;12726;49.148;8.582;2023-12-14T14:52:15;26.80;;;13.10;;
24557;SDS011;12726;49.148;8.582;2023-12-14T14:55:01;21.35;;;11.55;;
24557;SDS011;12726;49.148;8.582;2023-12-14T14:57:46;28.77;;;13.43;;
24557;SDS011;12726;49.148;8.582;2023-12-14T15:00:31;22.60;;;12.82;;
24557;SDS011;12726;49.148;8.582;2023-12-14T15:03:22;21.02;;;12.48;;
24557;SDS011;12726;49.148;8.582;2023-12-14T15:06:08;17.90;;;11.25;;
24557;SDS011;12726;49.148;8.582;2023-12-14T15:08:55;20.40;;;12.98;;
24557;SDS011;12726;49.148;8.582;2023-12-14T15:11:40;18.65;;;11.25;;
24557;SDS011;12726;49.148;8.582;2023-12-14T15:14:26;19.75;;;12.80;;
24557;SDS011;12726;49.148;8.582;2023-12-14T15:17:12;14.13;;;9.98;;
24557;SDS011;12726;49.148;8.582;2023-12-14T15:19:58;16.92;;;11.82;;
24557;SDS011;12726;49.148;8.582;2023-12-14T15:22:43;14.68;;;8.90;;
24557;SDS011;12726;49.148;8.582;2023-12-14T15:25:29;12.88;;;8.15;;
24557;SDS011;12726;49.148;8.582;2023-12-14T15:28:15;13.57;;;7.82;;
24557;SDS011;12726;49.148;8.582;2023-12-14T15:31:01;14.63;;;8.18;;
24557;SDS011;12726;49.148;8.582;2023-12-14T15:33:46;13.00;;;8.77;;
24557;SDS011;12726;49.148;8.582;2023-12-14T15:36:32;16.30;;;9.85;;
24557;SDS011;12726;49.148;8.582;2023-12-14T15:39:17;14.07;;;9.05;;
24557;SDS011;12726;49.148;8.582;2023-12-14T15:42:05;20.05;;;12.02;;
24557;SDS011;12726;49.148;8.582;2023-12-14T15:44:50;23.40;;;13.80;;
24557;SDS011;12726;49.148;8.582;2023-12-14T15:47:36;19.83;;;11.85;;
24557;SDS011;12726;49.148;8.582;2023-12-14T15:50:21;21.45;;;10.88;;
24557;SDS011;12726;49.148;8.582;2023-12-14T15:53:07;18.27;;;9.48;;
24557;SDS011;12726;49.148;8.582;2023-12-14T15:55:54;18.55;;;10.38;;
24557;SDS011;12726;49.148;8.582;2023-12-14T15:58:40;20.48;;;11.15;;
24557;SDS011;12726;49.148;8.582;2023-12-14T16:01:26;23.48;;;11.85;;
24557;SDS011;12726;49.148;8.582;2023-12-14T16:04:12;21.38;;;11.07;;
24557;SDS011;12726;49.148;8.582;2023-12-14T16:06:57;20.60;;;11.30;;
24557;SDS011;12726;49.148;8.582;2023-12-14T16:09:44;22.40;;;11.90;;
24557;SDS011;12726;49.148;8.582;2023-12-14T16:12:31;22.70;;;11.48;;
24557;SDS011;12726;49.148;8.582;2023-12-14T16:15:19;19.73;;;11.35;;
24557;SDS011;12726;49.148;8.582;2023-12-14T16:18:05;19.65;;;11.10;;
24557;SDS011;12726;49.148;8.582;2023-12-14T16:20:51;22.63;;;11.20;;
24557;SDS011;12726;49.148;8.582;2023-12-14T16:23:36;18.63;;;9.55;;